createdAt,value
2023-04-20T00:01:39.518Z,8.20
2023-04-20T00:04:07.621Z,7.57
2023-04-20T00:06:35.642Z,7.90
2023-04-20T00:09:04.603Z,7.83
2023-04-20T00:11:33.903Z,6.47
2023-04-20T00:14:01.882Z,8.27
2023-04-20T00:16:29.833Z,7.77
2023-04-20T00:18:58.591Z,7.23
2023-04-20T00:21:27.130Z,6.50
2023-04-20T00:23:55.336Z,7.03
2023-04-20T00:26:23.237Z,6.43
2023-04-20T00:28:55.385Z,6.33
2023-04-20T00:31:23.614Z,7.10
2023-04-20T00:33:51.777Z,5.70
2023-04-20T00:36:19.691Z,4.93
2023-04-20T00:38:47.572Z,5.93
2023-04-20T00:41:15.906Z,5.70
2023-04-20T00:43:52.406Z,5.67
2023-04-20T00:46:22.738Z,5.50
2023-04-20T00:48:52.615Z,6.30
2023-04-20T00:51:22.970Z,5.57
2023-04-20T00:53:51.038Z,7.20
2023-04-20T00:56:20.154Z,6.00
2023-04-20T00:58:48.246Z,6.00
2023-04-20T01:01:17.600Z,6.03
2023-04-20T01:03:48.901Z,5.30
2023-04-20T01:06:19.632Z,4.60
2023-04-20T01:08:49.445Z,4.73
2023-04-20T01:11:17.534Z,4.10
2023-04-20T01:13:46.088Z,4.20
2023-04-20T01:16:14.371Z,4.10
2023-04-20T01:18:46.477Z,4.53
2023-04-20T01:21:18.428Z,4.50
2023-04-20T01:23:48.209Z,4.60
2023-04-20T01:26:18.807Z,4.50
2023-04-20T01:28:47.535Z,4.97
2023-04-20T01:31:16.981Z,5.00
2023-04-20T01:33:45.268Z,4.77
2023-04-20T01:36:13.522Z,4.37
2023-04-20T01:38:41.859Z,4.27
2023-04-20T01:41:11.580Z,3.80
2023-04-20T01:43:40.805Z,4.20
2023-04-20T01:46:09.292Z,4.20
2023-04-20T01:48:37.319Z,4.53
2023-04-20T01:51:05.450Z,4.87
2023-04-20T01:53:34.059Z,4.40
2023-04-20T01:56:02.275Z,4.87
2023-04-20T01:58:31.603Z,5.20
2023-04-20T02:00:59.559Z,4.70
2023-04-20T02:03:28.465Z,4.70
2023-04-20T02:05:56.542Z,5.20
2023-04-20T02:08:27.908Z,4.80
2023-04-20T02:10:55.785Z,5.13
2023-04-20T02:13:23.631Z,5.30
2023-04-20T02:15:52.888Z,5.93
2023-04-20T02:18:21.350Z,5.83
2023-04-20T02:20:49.348Z,6.10
2023-04-20T02:23:17.447Z,6.50
2023-04-20T02:25:45.452Z,6.13
2023-04-20T02:28:13.789Z,5.97
2023-04-20T02:30:41.690Z,5.83
2023-04-20T02:33:14.302Z,6.63
2023-04-20T02:35:42.202Z,6.03
2023-04-20T02:38:11.986Z,5.63
2023-04-20T02:40:40.378Z,5.80
2023-04-20T02:43:08.865Z,5.87
2023-04-20T02:45:37.244Z,6.30
2023-04-20T02:48:06.808Z,6.00
2023-04-20T02:50:36.308Z,6.30
2023-04-20T02:53:11.602Z,6.37
2023-04-20T02:55:40.571Z,7.53
2023-04-20T02:58:20.477Z,6.13
2023-04-20T03:01:12.733Z,5.90
2023-04-20T03:03:40.821Z,6.47
2023-04-20T03:06:13.570Z,6.57
2023-04-20T03:08:46.082Z,5.33
2023-04-20T03:11:34.279Z,4.53
2023-04-20T03:14:02.217Z,5.93
2023-04-20T03:16:30.168Z,5.47
2023-04-20T03:18:59.368Z,5.10
2023-04-20T03:21:28.593Z,5.50
2023-04-20T03:23:56.559Z,5.10
2023-04-20T03:26:24.472Z,5.07
2023-04-20T03:29:04.364Z,5.27
2023-04-20T03:31:32.828Z,5.20
2023-04-20T03:34:01.159Z,5.20
2023-04-20T03:36:30.511Z,5.10
2023-04-20T03:38:58.546Z,5.03
2023-04-20T03:41:26.403Z,4.67
2023-04-20T03:43:56.237Z,4.87
2023-04-20T03:46:24.164Z,5.37
2023-04-20T03:48:52.061Z,5.87
2023-04-20T03:51:20.081Z,5.60
2023-04-20T03:53:49.297Z,6.37
2023-04-20T03:56:17.214Z,5.77
2023-04-20T03:58:45.564Z,6.00
2023-04-20T04:01:17.420Z,6.03
2023-04-20T04:03:48.921Z,6.20
2023-04-20T04:06:18.062Z,6.20
2023-04-20T04:08:45.983Z,6.40
2023-04-20T04:11:15.579Z,6.43
2023-04-20T04:13:43.542Z,6.57
2023-04-20T04:16:11.498Z,6.97
2023-04-20T04:18:44.354Z,8.00
2023-04-20T04:21:12.739Z,8.20
2023-04-20T04:23:43.906Z,7.07
2023-04-20T04:26:25.027Z,7.13
2023-04-20T04:28:55.240Z,7.83
2023-04-20T04:31:23.558Z,7.80
2023-04-20T04:33:52.420Z,8.03
2023-04-20T04:36:29.042Z,7.80
2023-04-20T04:38:59.188Z,8.23
2023-04-20T04:41:29.255Z,7.70
2023-04-20T04:44:07.586Z,8.57
2023-04-20T04:46:36.700Z,8.27
2023-04-20T04:49:05.834Z,8.00
2023-04-20T04:51:33.800Z,8.43
2023-04-20T04:54:01.696Z,8.57
2023-04-20T04:56:30.883Z,8.57
2023-04-20T04:58:58.776Z,7.17
2023-04-20T05:01:27.055Z,8.30
2023-04-20T05:03:55.187Z,7.73
2023-04-20T05:06:23.181Z,6.77
2023-04-20T05:08:51.037Z,6.67
2023-04-20T05:11:19.264Z,5.43
2023-04-20T05:13:49.801Z,5.53
2023-04-20T05:16:17.728Z,5.63
2023-04-20T05:18:45.638Z,5.57
2023-04-20T05:21:13.644Z,5.17
2023-04-20T05:23:42.003Z,5.80
2023-04-20T05:26:09.858Z,5.13
2023-04-20T05:28:37.748Z,5.83
2023-04-20T05:31:07.978Z,6.33
2023-04-20T05:33:36.155Z,6.13
2023-04-20T05:36:04.352Z,6.40
2023-04-20T05:38:32.205Z,6.03
2023-04-20T05:41:00.215Z,7.13
2023-04-20T05:43:28.090Z,6.97
2023-04-20T05:45:56.032Z,7.27
2023-04-20T05:48:29.571Z,6.90
2023-04-20T05:50:58.295Z,8.33
2023-04-20T05:53:26.840Z,7.80
2023-04-20T05:55:54.696Z,9.10
2023-04-20T05:58:22.654Z,9.70
2023-04-20T06:00:50.536Z,8.80
2023-04-20T06:03:18.890Z,8.97
2023-04-20T06:05:49.378Z,9.17
2023-04-20T06:08:17.415Z,10.23
2023-04-20T06:10:45.368Z,11.53
2023-04-20T06:13:13.248Z,11.10
2023-04-20T06:15:41.234Z,11.83
2023-04-20T06:18:09.227Z,13.10
2023-04-20T06:20:39.095Z,12.87
2023-04-20T06:23:08.724Z,11.30
2023-04-20T06:25:37.686Z,10.80
2023-04-20T06:28:06.277Z,12.67
2023-04-20T06:30:34.625Z,12.37
2023-04-20T06:33:03.011Z,12.27
2023-04-20T06:35:31.074Z,11.57
2023-04-20T06:37:59.117Z,12.30
2023-04-20T06:40:29.948Z,11.30
2023-04-20T06:42:57.804Z,11.20
2023-04-20T06:45:25.687Z,10.73
2023-04-20T06:47:53.712Z,10.30
2023-04-20T06:50:22.015Z,12.10
2023-04-20T06:52:49.870Z,11.37
2023-04-20T06:55:19.236Z,10.80
2023-04-20T06:57:48.430Z,12.17
2023-04-20T07:00:17.950Z,11.30
2023-04-20T07:02:48.487Z,11.57
2023-04-20T07:05:17.782Z,12.33
2023-04-20T07:07:46.852Z,8.63
2023-04-20T07:10:16.410Z,10.10
2023-04-20T07:12:45.811Z,9.87
2023-04-20T07:15:15.585Z,9.87
2023-04-20T07:17:43.479Z,9.57
2023-04-20T07:20:12.177Z,9.23
2023-04-20T07:22:40.728Z,8.53
2023-04-20T07:25:10.452Z,7.90
2023-04-20T07:27:41.520Z,7.50
2023-04-20T07:30:12.002Z,7.63
2023-04-20T07:32:42.323Z,7.40
2023-04-20T07:35:11.731Z,7.90
2023-04-20T07:37:40.587Z,6.77
2023-04-20T07:40:10.951Z,6.30
2023-04-20T07:42:38.980Z,6.70
2023-04-20T07:45:08.413Z,5.93
2023-04-20T07:47:36.986Z,6.40
2023-04-20T07:50:08.106Z,6.17
2023-04-20T07:52:36.063Z,5.80
2023-04-20T07:55:04.025Z,5.30
2023-04-20T07:57:32.234Z,4.33
2023-04-20T08:00:00.163Z,3.80
2023-04-20T08:02:28.588Z,3.93
2023-04-20T08:04:56.936Z,5.17
2023-04-20T08:07:26.448Z,4.23
2023-04-20T08:09:54.422Z,5.00
2023-04-20T08:12:22.283Z,4.53
2023-04-20T08:14:50.254Z,4.40
2023-04-20T08:17:18.143Z,4.53
2023-04-20T08:19:46.307Z,5.17
2023-04-20T08:22:14.297Z,4.73
2023-04-20T08:24:43.545Z,4.40
2023-04-20T08:27:11.745Z,4.27
2023-04-20T08:29:40.053Z,5.00
2023-04-20T08:32:09.627Z,5.07
2023-04-20T08:34:37.924Z,4.70
2023-04-20T08:37:06.681Z,5.23
2023-04-20T08:39:34.697Z,4.30
2023-04-20T08:42:04.301Z,4.80
2023-04-20T08:44:32.838Z,4.70
2023-04-20T08:47:01.063Z,5.57
2023-04-20T08:49:30.649Z,4.50
2023-04-20T08:51:58.581Z,4.03
2023-04-20T08:54:26.476Z,4.60
2023-04-20T08:56:55.773Z,4.80
2023-04-20T08:59:24.998Z,5.10
2023-04-20T09:01:53.031Z,4.80
2023-04-20T09:04:26.086Z,4.90
2023-04-20T09:06:56.792Z,6.00
2023-04-20T09:09:27.000Z,4.87
2023-04-20T09:12:03.462Z,5.47
2023-04-20T09:14:43.397Z,5.53
2023-04-20T09:17:14.387Z,5.43
2023-04-20T09:19:46.792Z,5.50
2023-04-20T09:22:14.815Z,5.17
2023-04-20T09:24:42.740Z,5.30
2023-04-20T09:27:18.191Z,4.57
2023-04-20T09:29:58.914Z,4.63
2023-04-20T09:32:29.326Z,5.47
2023-04-20T09:34:58.228Z,5.00
2023-04-20T09:37:26.492Z,5.00
2023-04-20T09:40:00.987Z,4.87
2023-04-20T09:42:29.748Z,5.17
2023-04-20T09:45:00.793Z,4.83
2023-04-20T09:47:29.973Z,4.80
2023-04-20T09:50:04.452Z,4.93
2023-04-20T09:52:39.257Z,4.57
2023-04-20T09:55:11.170Z,4.37
2023-04-20T09:57:41.685Z,4.43
2023-04-20T10:00:12.748Z,3.53
2023-04-20T10:02:40.963Z,3.50
2023-04-20T10:05:09.245Z,3.30
2023-04-20T10:07:37.535Z,4.00
2023-04-20T10:10:08.898Z,4.20
2023-04-20T10:12:49.287Z,4.30
2023-04-20T10:15:19.115Z,4.37
2023-04-20T10:17:47.098Z,4.47
2023-04-20T10:20:24.616Z,6.07
2023-04-20T10:22:53.402Z,5.80
2023-04-20T10:25:27.390Z,4.63
2023-04-20T10:27:58.179Z,6.23
2023-04-20T10:30:29.425Z,6.40
2023-04-20T10:33:05.914Z,5.83
2023-04-20T10:35:47.490Z,6.57
2023-04-20T10:38:16.125Z,5.80
2023-04-20T10:40:44.149Z,6.40
2023-04-20T10:43:22.244Z,6.50
2023-04-20T10:45:52.434Z,6.67
2023-04-20T10:48:20.386Z,5.90
2023-04-20T10:50:48.504Z,6.17
2023-04-20T10:53:21.803Z,6.23
2023-04-20T10:56:02.102Z,6.37
2023-04-20T10:58:30.172Z,5.80
2023-04-20T11:01:01.590Z,5.40
2023-04-20T11:03:31.606Z,5.37
2023-04-20T11:06:01.410Z,5.30
2023-04-20T11:08:41.671Z,5.87
2023-04-20T11:11:20.388Z,5.73
2023-04-20T11:13:49.346Z,4.97
2023-04-20T11:16:20.759Z,5.57
2023-04-20T11:18:54.109Z,5.60
2023-04-20T11:21:23.344Z,5.20
2023-04-20T11:23:51.480Z,4.97
2023-04-20T11:26:19.380Z,4.80
2023-04-20T11:28:56.141Z,5.30
2023-04-20T11:31:27.991Z,5.60
2023-04-20T11:33:56.004Z,5.27
2023-04-20T11:36:26.510Z,5.60
2023-04-20T11:38:55.760Z,5.23
2023-04-20T11:41:23.685Z,5.37
2023-04-20T11:43:54.611Z,6.00
2023-04-20T11:46:22.907Z,6.90
2023-04-20T11:48:52.136Z,6.80
2023-04-20T11:51:20.001Z,6.20
2023-04-20T11:53:47.923Z,6.43
2023-04-20T11:56:15.938Z,6.23
2023-04-20T11:58:43.821Z,7.03
2023-04-20T12:01:12.047Z,6.67
2023-04-20T12:03:40.290Z,7.00
2023-04-20T12:06:09.868Z,7.80
2023-04-20T12:08:40.314Z,7.10
2023-04-20T12:11:08.276Z,7.17
2023-04-20T12:13:36.147Z,7.10
2023-04-20T12:16:04.149Z,7.63
2023-04-20T12:18:32.132Z,7.37
2023-04-20T12:21:00.645Z,7.50
2023-04-20T12:23:29.897Z,8.00
2023-04-20T12:25:57.826Z,8.70
2023-04-20T12:28:26.166Z,8.70
2023-04-20T12:30:54.138Z,8.80
2023-04-20T12:33:22.020Z,8.90
2023-04-20T12:35:50.053Z,9.03
2023-04-20T12:38:18.835Z,9.00
2023-04-20T12:40:48.374Z,9.03
2023-04-20T12:43:16.629Z,9.37
2023-04-20T12:45:44.580Z,9.47
2023-04-20T12:48:12.837Z,10.43
2023-04-20T12:50:40.821Z,9.40
2023-04-20T12:53:08.965Z,9.40
2023-04-20T12:55:36.945Z,8.80
2023-04-20T12:58:06.252Z,8.40
2023-04-20T13:00:34.323Z,9.43
2023-04-20T13:03:02.449Z,9.20
2023-04-20T13:05:30.972Z,9.07
2023-04-20T13:07:59.106Z,8.63
2023-04-20T13:10:28.036Z,8.93
2023-04-20T13:12:57.749Z,10.00
2023-04-20T13:15:38.104Z,9.97
2023-04-20T13:18:09.553Z,9.37
2023-04-20T13:20:37.797Z,9.63
2023-04-20T13:23:06.506Z,10.50
2023-04-20T13:25:34.850Z,11.57
2023-04-20T13:28:06.697Z,9.63
2023-04-20T13:30:36.278Z,8.70
2023-04-20T13:33:04.384Z,7.83
2023-04-20T13:35:32.305Z,8.67
2023-04-20T13:38:00.385Z,7.33
2023-04-20T13:40:28.858Z,7.43
2023-04-20T13:42:59.591Z,7.43
2023-04-20T13:45:28.005Z,6.50
2023-04-20T13:47:58.130Z,6.63
2023-04-20T13:50:26.291Z,7.33
2023-04-20T13:52:54.161Z,6.43
2023-04-20T13:55:22.471Z,7.57
2023-04-20T13:57:51.296Z,6.73
2023-04-20T14:00:20.596Z,6.70
2023-04-20T14:02:49.026Z,5.47
2023-04-20T14:05:18.487Z,6.70
2023-04-20T14:07:46.365Z,6.63
2023-04-20T14:10:14.377Z,6.43
2023-04-20T14:12:42.311Z,7.40
2023-04-20T14:15:11.991Z,7.40
2023-04-20T14:17:39.948Z,8.00
2023-04-20T14:20:10.244Z,7.90
2023-04-20T14:22:39.759Z,9.47
2023-04-20T14:25:08.699Z,8.17
2023-04-20T14:27:36.970Z,10.00
2023-04-20T14:30:09.650Z,9.60
2023-04-20T14:32:37.745Z,8.50
2023-04-20T14:35:06.887Z,8.77
2023-04-20T14:37:34.834Z,8.30
2023-04-20T14:40:07.065Z,7.43
2023-04-20T14:42:35.000Z,7.73
2023-04-20T14:45:03.059Z,6.87
2023-04-20T14:47:30.960Z,7.57
2023-04-20T14:49:58.885Z,7.03
2023-04-20T14:52:27.126Z,7.37
2023-04-20T14:54:55.534Z,6.73
2023-04-20T14:57:25.149Z,7.70
2023-04-20T14:59:53.113Z,7.50
2023-04-20T15:02:21.079Z,7.87
2023-04-20T15:04:49.232Z,6.57
2023-04-20T15:07:17.772Z,6.57
2023-04-20T15:09:45.951Z,6.80
2023-04-20T15:12:13.836Z,7.40
2023-04-20T15:14:43.422Z,7.20
2023-04-20T15:17:11.731Z,7.70
2023-04-20T15:19:45.787Z,6.70
2023-04-20T15:22:14.407Z,7.13
2023-04-20T15:24:42.480Z,7.30
2023-04-20T15:27:11.196Z,8.30
2023-04-20T15:29:39.189Z,7.73
2023-04-20T15:32:09.052Z,7.50
2023-04-20T15:34:37.031Z,7.53
2023-04-20T15:37:04.924Z,7.40
2023-04-20T15:39:32.885Z,8.13
2023-04-20T15:42:00.950Z,8.07
2023-04-20T15:44:29.318Z,8.17
2023-04-20T15:46:57.993Z,7.97
2023-04-20T15:49:27.274Z,8.17
2023-04-20T15:51:57.814Z,8.27
2023-04-20T15:54:25.744Z,8.53
2023-04-20T15:56:53.945Z,8.20
2023-04-20T15:59:22.210Z,8.50
2023-04-20T16:01:50.376Z,8.57
2023-04-20T16:04:18.784Z,8.00
2023-04-20T16:06:48.598Z,8.17
2023-04-20T16:09:17.387Z,8.07
2023-04-20T16:11:45.354Z,8.30
2023-04-20T16:14:13.297Z,9.20
2023-04-20T16:16:41.209Z,9.20
2023-04-20T16:19:09.159Z,9.30
2023-04-20T16:21:37.055Z,10.23
2023-04-20T16:24:07.055Z,9.60
2023-04-20T16:26:35.333Z,10.27
2023-04-20T16:29:05.848Z,9.87
2023-04-20T16:31:35.334Z,10.07
2023-04-20T16:34:03.413Z,10.63
2023-04-20T16:36:32.097Z,15.37
2023-04-20T16:39:02.238Z,10.53
2023-04-20T16:41:31.678Z,11.50
2023-04-20T16:43:59.641Z,11.83
2023-04-20T16:46:27.579Z,10.93
2023-04-20T16:48:55.557Z,11.03
2023-04-20T16:51:23.879Z,11.27
2023-04-20T16:53:51.761Z,11.03
2023-04-20T16:56:19.959Z,11.87
2023-04-20T16:58:49.281Z,12.30
2023-04-20T17:01:17.335Z,10.97
2023-04-20T17:03:45.879Z,11.73
2023-04-20T17:06:14.304Z,11.73
2023-04-20T17:08:43.193Z,12.57
2023-04-20T17:11:11.252Z,12.30
2023-04-20T17:13:39.490Z,13.93
2023-04-20T17:16:08.815Z,13.70
2023-04-20T17:18:40.412Z,14.63
2023-04-20T17:21:09.676Z,14.77
2023-04-20T17:23:37.598Z,14.50
2023-04-20T17:26:05.761Z,16.23
2023-04-20T17:28:33.620Z,15.20
2023-04-20T17:31:01.516Z,15.87
2023-04-20T17:33:31.389Z,15.83
2023-04-20T17:36:00.274Z,16.20
2023-04-20T17:38:28.431Z,15.77
2023-04-20T17:40:56.355Z,16.00
2023-04-20T17:43:24.388Z,15.10
2023-04-20T17:45:52.527Z,15.57
2023-04-20T17:48:20.430Z,14.97
2023-04-20T17:50:51.012Z,16.87
2023-04-20T17:53:18.910Z,16.07
2023-04-20T17:55:46.790Z,16.00
2023-04-20T17:58:14.692Z,17.27
2023-04-20T18:00:42.975Z,16.43
2023-04-20T18:03:11.815Z,16.47
2023-04-20T18:05:39.911Z,16.67
2023-04-20T18:08:10.099Z,16.80
2023-04-20T18:10:38.297Z,17.00
2023-04-20T18:13:06.382Z,16.93
2023-04-20T18:15:34.390Z,17.77
2023-04-20T18:18:02.344Z,17.17
2023-04-20T18:20:32.378Z,18.47
2023-04-20T18:23:00.594Z,19.63
2023-04-20T18:25:29.857Z,18.80
2023-04-20T18:27:57.738Z,18.47
2023-04-20T18:30:25.854Z,19.93
2023-04-20T18:32:54.163Z,18.90
2023-04-20T18:35:22.221Z,18.27
2023-04-20T18:37:51.714Z,19.43
2023-04-20T18:40:19.990Z,21.23
2023-04-20T18:42:49.271Z,19.67
2023-04-20T18:45:17.222Z,19.80
2023-04-20T18:47:45.969Z,21.10
2023-04-20T18:50:13.979Z,19.27
2023-04-20T18:52:42.127Z,21.87
2023-04-20T18:55:10.846Z,22.27
2023-04-20T18:57:38.794Z,22.30
2023-04-20T19:00:10.462Z,21.37
2023-04-20T19:02:38.581Z,21.00
2023-04-20T19:05:09.067Z,21.40
2023-04-20T19:07:37.314Z,23.70
2023-04-20T19:10:06.699Z,23.50
2023-04-20T19:12:34.626Z,23.40
2023-04-20T19:15:02.540Z,24.67
2023-04-20T19:17:32.034Z,24.13
2023-04-20T19:20:00.001Z,22.10
2023-04-20T19:22:28.398Z,21.87
2023-04-20T19:24:56.287Z,23.60
2023-04-20T19:27:24.263Z,23.17
2023-04-20T19:29:53.010Z,23.50
2023-04-20T19:32:21.243Z,23.37
2023-04-20T19:34:52.319Z,23.97
2023-04-20T19:37:20.231Z,24.50
2023-04-20T19:39:48.136Z,24.20
2023-04-20T19:42:16.273Z,22.00
2023-04-20T19:44:44.460Z,22.37
2023-04-20T19:47:12.696Z,23.17
2023-04-20T19:49:40.966Z,23.50
2023-04-20T19:52:10.171Z,23.20
2023-04-20T19:54:38.201Z,22.17
2023-04-20T19:57:06.117Z,22.47
2023-04-20T19:59:33.999Z,25.03
2023-04-20T20:02:02.058Z,26.67
2023-04-20T20:04:30.177Z,24.27
2023-04-20T20:06:59.092Z,23.87
2023-04-20T20:09:28.333Z,24.23
2023-04-20T20:11:56.207Z,23.47
2023-04-20T20:14:24.122Z,23.93
2023-04-20T20:16:52.068Z,24.90
2023-04-20T20:19:21.994Z,24.13
2023-04-20T20:21:50.572Z,23.97
2023-04-20T20:24:18.799Z,25.20
2023-04-20T20:26:48.180Z,26.40
2023-04-20T20:29:16.220Z,24.60
2023-04-20T20:31:44.211Z,26.13
2023-04-20T20:34:12.121Z,24.73
2023-04-20T20:36:42.465Z,24.73
2023-04-20T20:39:10.365Z,23.57
2023-04-20T20:41:42.741Z,23.70
2023-04-20T20:44:12.800Z,24.17
2023-04-20T20:46:41.227Z,23.50
2023-04-20T20:49:09.117Z,24.00
2023-04-20T20:51:36.992Z,24.97
2023-04-20T20:54:05.135Z,25.70
2023-04-20T20:56:33.026Z,26.10
2023-04-20T20:59:01.039Z,26.33
2023-04-20T21:01:30.339Z,24.67
2023-04-20T21:03:58.685Z,25.97
2023-04-20T21:06:26.720Z,26.87
2023-04-20T21:08:54.685Z,27.17
2023-04-20T21:11:22.554Z,25.73
2023-04-20T21:13:50.653Z,24.93
2023-04-20T21:16:18.549Z,27.67
2023-04-20T21:18:47.896Z,25.20
2023-04-20T21:21:16.452Z,25.73
2023-04-20T21:23:44.363Z,30.67
2023-04-20T21:26:12.538Z,29.77
2023-04-20T21:28:40.511Z,30.23
2023-04-20T21:31:08.398Z,31.40
2023-04-20T21:33:36.718Z,29.87
2023-04-20T21:36:07.344Z,29.13
2023-04-20T21:38:35.436Z,29.80
2023-04-20T21:41:03.579Z,29.20
2023-04-20T21:43:31.451Z,31.07
2023-04-20T21:45:59.360Z,30.27
2023-04-20T21:48:28.000Z,29.93
2023-04-20T21:50:55.854Z,30.67
2023-04-20T21:53:25.207Z,29.30
2023-04-20T21:55:53.269Z,31.57
2023-04-20T21:58:21.138Z,29.90
2023-04-20T22:00:50.716Z,28.67
2023-04-20T22:03:18.856Z,30.57
2023-04-20T22:05:46.843Z,28.63
2023-04-20T22:08:15.222Z,28.53
2023-04-20T22:10:46.939Z,29.23
2023-04-20T22:13:14.847Z,30.63
2023-04-20T22:15:42.828Z,30.60
2023-04-20T22:18:11.211Z,30.37
2023-04-20T22:20:39.699Z,29.53
2023-04-20T22:23:07.620Z,29.67
2023-04-20T22:25:35.534Z,29.87
2023-04-20T22:28:05.306Z,29.23
2023-04-20T22:30:33.232Z,28.97
2023-04-20T22:33:01.318Z,30.60
2023-04-20T22:35:30.291Z,30.27
2023-04-20T22:37:58.532Z,28.67
2023-04-20T22:40:27.077Z,29.57
2023-04-20T22:42:54.945Z,31.67
2023-04-20T22:45:24.266Z,34.43
2023-04-20T22:47:52.260Z,32.13
2023-04-20T22:50:20.613Z,31.90
2023-04-20T22:52:49.382Z,30.87
2023-04-20T22:55:17.310Z,31.03
2023-04-20T22:57:45.175Z,29.50
2023-04-20T23:00:17.130Z,29.20
2023-04-20T23:02:46.631Z,30.23
2023-04-20T23:05:20.066Z,30.17
2023-04-20T23:07:49.449Z,29.17
2023-04-20T23:10:17.580Z,31.03
2023-04-20T23:12:46.833Z,30.33
2023-04-20T23:15:15.450Z,29.23
2023-04-20T23:17:43.829Z,30.80
2023-04-20T23:20:14.402Z,34.40
2023-04-20T23:22:42.319Z,33.53
2023-04-20T23:25:10.963Z,33.23
2023-04-20T23:27:38.893Z,31.70
2023-04-20T23:30:09.495Z,32.13
2023-04-20T23:32:37.830Z,32.50
2023-04-20T23:35:06.996Z,32.03
2023-04-20T23:37:36.254Z,30.67
2023-04-20T23:40:06.904Z,31.80
2023-04-20T23:42:37.293Z,33.37
2023-04-20T23:45:06.281Z,33.10
2023-04-20T23:47:34.228Z,37.33
2023-04-20T23:50:02.121Z,34.80
2023-04-20T23:52:30.749Z,35.97
2023-04-20T23:55:00.560Z,38.17
2023-04-20T23:57:28.501Z,34.70
2023-04-20T23:59:56.353Z,36.90
